createdAt,value
2019-04-30T00:02:15.746Z,1.47
2019-04-30T00:04:47.734Z,1.30
2019-04-30T00:07:19.046Z,2.53
2019-04-30T00:09:49.285Z,1.10
2019-04-30T00:12:19.776Z,2.73
2019-04-30T00:14:52.313Z,2.90
2019-04-30T00:17:27.337Z,2.50
2019-04-30T00:19:59.715Z,1.10
2019-04-30T00:22:33.877Z,2.77
2019-04-30T00:24:57.599Z,3.13
2019-04-30T00:27:30.252Z,2.77
2019-04-30T00:30:07.274Z,2.20
2019-04-30T00:32:39.032Z,1.57
2019-04-30T00:35:07.284Z,2.17
2019-04-30T00:37:41.876Z,1.23
2019-04-30T00:40:15.506Z,1.43
2019-04-30T00:42:45.752Z,1.67
2019-04-30T00:45:15.449Z,2.07
2019-04-30T00:47:47.917Z,2.53
2019-04-30T00:50:15.629Z,2.77
2019-04-30T00:52:45.792Z,1.87
2019-04-30T00:55:19.281Z,2.33
2019-04-30T00:57:50.490Z,1.40
2019-04-30T01:00:28.075Z,1.20
2019-04-30T01:02:56.285Z,1.17
2019-04-30T01:05:28.282Z,1.17
2019-04-30T01:08:00.767Z,2.83
2019-04-30T01:10:34.507Z,1.40
2019-04-30T01:13:08.282Z,1.50
2019-04-30T01:15:39.500Z,2.20
2019-04-30T01:18:09.366Z,1.20
2019-04-30T01:20:40.716Z,2.53
2019-04-30T01:23:11.391Z,1.50
2019-04-30T01:25:49.895Z,1.40
2019-04-30T01:28:16.430Z,1.33
2019-04-30T01:30:49.560Z,2.90
2019-04-30T01:33:21.141Z,3.53
2019-04-30T01:35:53.664Z,1.63
2019-04-30T01:38:24.009Z,2.17
2019-04-30T01:40:55.159Z,3.43
2019-04-30T01:43:31.726Z,3.77
2019-04-30T01:45:55.648Z,1.20
2019-04-30T01:48:25.583Z,3.73
2019-04-30T01:50:55.640Z,3.00
2019-04-30T01:53:31.162Z,1.53
2019-04-30T01:56:09.118Z,1.90
2019-04-30T01:58:45.427Z,1.43
2019-04-30T02:01:19.056Z,2.10
2019-04-30T02:03:49.330Z,1.83
2019-04-30T02:06:20.076Z,1.73
2019-04-30T02:08:49.398Z,1.23
2019-04-30T02:11:21.718Z,1.40
2019-04-30T02:13:53.043Z,1.30
2019-04-30T02:16:28.774Z,1.30
2019-04-30T02:18:59.691Z,1.43
2019-04-30T02:24:19.625Z,1.40
2019-04-30T02:26:48.472Z,1.20
2019-04-30T02:29:16.964Z,1.40
2019-04-30T02:31:47.001Z,1.03
2019-04-30T02:34:22.226Z,2.93
2019-04-30T02:36:54.023Z,1.40
2019-04-30T02:39:25.173Z,1.20
2019-04-30T02:41:54.048Z,2.13
2019-04-30T02:44:26.284Z,2.73
2019-04-30T02:47:00.427Z,2.73
2019-04-30T02:49:30.409Z,2.53
2019-04-30T02:52:00.440Z,2.30
2019-04-30T02:54:30.356Z,1.53
2019-04-30T02:57:02.090Z,1.37
2019-04-30T02:59:32.393Z,5.40
2019-04-30T03:02:01.631Z,2.00
2019-04-30T03:04:30.305Z,1.50
2019-04-30T03:07:05.632Z,2.03
2019-04-30T03:09:35.952Z,2.33
2019-04-30T03:12:08.692Z,1.93
2019-04-30T03:14:40.068Z,3.73
2019-04-30T03:17:14.701Z,3.00
2019-04-30T03:19:50.036Z,1.30
2019-04-30T03:22:20.356Z,1.90
2019-04-30T03:24:50.397Z,1.50
2019-04-30T03:27:20.700Z,2.13
2019-04-30T03:29:59.971Z,3.10
2019-04-30T03:32:35.743Z,1.30
2019-04-30T03:35:02.643Z,1.83
2019-04-30T03:37:31.999Z,1.43
2019-04-30T03:40:01.823Z,1.40
2019-04-30T03:42:30.789Z,1.10
2019-04-30T03:44:59.574Z,3.23
2019-04-30T03:47:34.895Z,3.87
2019-04-30T03:50:04.939Z,1.03
2019-04-30T03:52:36.245Z,2.17
2019-04-30T03:55:09.514Z,1.63
2019-04-30T03:57:40.059Z,1.30
2019-04-30T04:00:10.672Z,1.63
2019-04-30T04:02:43.215Z,2.07
2019-04-30T04:05:19.988Z,2.73
2019-04-30T04:07:59.841Z,1.23
2019-04-30T04:10:40.422Z,3.40
2019-04-30T04:13:13.320Z,2.40
2019-04-30T04:15:43.473Z,2.13
2019-04-30T04:18:13.244Z,2.17
2019-04-30T04:20:45.799Z,7.03
2019-04-30T04:23:19.111Z,1.87
2019-04-30T04:25:49.820Z,2.20
2019-04-30T04:28:20.968Z,2.20
2019-04-30T04:30:51.077Z,3.20
2019-04-30T04:33:22.249Z,3.43
2019-04-30T04:35:54.329Z,2.40
2019-04-30T04:38:23.025Z,1.43
2019-04-30T04:40:52.769Z,2.97
2019-04-30T04:43:25.763Z,3.30
2019-04-30T04:45:54.675Z,2.43
2019-04-30T04:48:24.221Z,2.63
2019-04-30T04:50:53.371Z,2.43
2019-04-30T04:53:21.840Z,1.50
2019-04-30T04:55:51.587Z,2.67
2019-04-30T04:58:21.818Z,3.53
2019-04-30T05:00:51.928Z,6.07
2019-04-30T05:03:26.553Z,2.90
2019-04-30T05:06:02.813Z,6.60
2019-04-30T05:08:40.101Z,5.97
2019-04-30T05:11:09.846Z,14.10
2019-04-30T05:13:49.367Z,3.80
2019-04-30T05:16:31.974Z,9.87
2019-04-30T05:19:03.867Z,3.90
2019-04-30T05:22:09.522Z,10.63
2019-04-30T05:24:40.834Z,4.00
2019-04-30T05:27:11.257Z,7.20
2019-04-30T05:29:44.907Z,4.50
2019-04-30T05:32:15.690Z,2.77
2019-04-30T05:34:45.799Z,4.43
2019-04-30T05:37:18.379Z,7.27
2019-04-30T05:39:51.060Z,11.17
2019-04-30T05:42:22.601Z,8.10
2019-04-30T05:44:55.570Z,9.23
2019-04-30T05:47:30.307Z,5.27
2019-04-30T05:50:01.779Z,4.60
2019-04-30T05:52:31.336Z,4.83
2019-04-30T05:55:01.156Z,8.47
2019-04-30T05:57:30.126Z,5.07
2019-04-30T06:00:03.541Z,10.20
2019-04-30T06:02:34.102Z,12.13
2019-04-30T06:05:08.726Z,8.33
2019-04-30T06:07:41.427Z,10.70
2019-04-30T06:13:00.513Z,9.77
2019-04-30T06:15:40.512Z,13.77
2019-04-30T06:18:14.100Z,8.47
2019-04-30T06:20:42.835Z,8.40
2019-04-30T06:23:12.859Z,12.27
2019-04-30T06:25:57.483Z,10.00
2019-04-30T06:28:22.042Z,12.70
2019-04-30T06:30:52.008Z,7.87
2019-04-30T06:33:21.542Z,11.20
2019-04-30T06:35:51.112Z,12.27
2019-04-30T06:38:21.173Z,14.27
2019-04-30T06:40:51.210Z,12.10
2019-04-30T06:43:22.135Z,9.63
2019-04-30T06:45:51.300Z,7.87
2019-04-30T06:48:22.767Z,6.40
2019-04-30T06:50:54.187Z,8.33
2019-04-30T06:53:24.925Z,7.77
2019-04-30T06:55:54.863Z,5.37
2019-04-30T06:58:29.410Z,6.90
2019-04-30T07:01:01.183Z,6.53
2019-04-30T07:03:31.838Z,7.37
2019-04-30T07:06:00.963Z,7.93
2019-04-30T07:08:42.476Z,7.43
2019-04-30T07:11:24.040Z,11.37
2019-04-30T07:13:54.136Z,10.80
2019-04-30T07:16:26.988Z,13.73
2019-04-30T07:19:09.427Z,17.77
2019-04-30T07:21:42.696Z,11.13
2019-04-30T07:24:10.569Z,13.33
2019-04-30T07:26:39.278Z,11.90
2019-04-30T07:29:09.690Z,11.83
2019-04-30T07:31:40.959Z,10.97
2019-04-30T07:34:10.357Z,9.00
2019-04-30T07:36:49.183Z,12.70
2019-04-30T07:39:15.092Z,8.23
2019-04-30T07:41:45.592Z,14.97
2019-04-30T07:44:30.048Z,7.67
2019-04-30T07:46:45.694Z,19.60
2019-04-30T07:49:23.757Z,12.93
2019-04-30T07:51:54.288Z,24.23
2019-04-30T08:13:13.815Z,25.13
2019-04-30T08:18:46.602Z,21.53
2019-04-30T08:21:19.030Z,21.07
2019-04-30T08:23:50.878Z,21.00
2019-04-30T08:26:20.791Z,24.07
2019-04-30T08:28:49.204Z,25.27
2019-04-30T08:31:26.188Z,44.60
2019-04-30T08:33:56.232Z,40.60
2019-04-30T08:36:26.561Z,53.07
2019-04-30T08:39:01.558Z,55.23
2019-04-30T08:41:33.816Z,72.07
2019-04-30T08:44:06.404Z,63.07
2019-04-30T08:46:35.711Z,62.53
2019-04-30T08:49:04.619Z,61.47
2019-04-30T08:51:35.794Z,56.07
2019-04-30T08:54:04.462Z,55.47
2019-04-30T08:56:36.293Z,53.50
2019-04-30T08:59:08.707Z,52.93
2019-04-30T09:01:48.654Z,47.03
2019-04-30T09:04:20.120Z,47.00
2019-04-30T09:06:49.978Z,50.93
2019-04-30T09:09:18.924Z,66.67
2019-04-30T09:11:52.888Z,63.50
2019-04-30T09:14:19.035Z,63.50
2019-04-30T09:16:51.346Z,63.87
2019-04-30T09:19:21.288Z,65.03
2019-04-30T09:21:51.948Z,65.27
2019-04-30T09:24:26.719Z,64.10
2019-04-30T09:26:59.077Z,63.23
2019-04-30T09:29:29.555Z,58.53
2019-04-30T09:32:19.107Z,58.20
2019-04-30T09:35:34.289Z,54.53
2019-04-30T09:38:21.340Z,51.97
2019-04-30T09:40:55.215Z,53.63
2019-04-30T09:43:25.160Z,50.43
2019-04-30T09:45:54.137Z,49.80
2019-04-30T09:48:23.413Z,47.83
2019-04-30T09:50:56.660Z,50.03
2019-04-30T09:53:30.487Z,43.60
2019-04-30T09:56:05.134Z,41.43
2019-04-30T09:58:35.972Z,40.53
2019-04-30T10:01:09.355Z,39.40
2019-04-30T10:03:38.774Z,40.63
2019-04-30T10:06:11.164Z,35.13
2019-04-30T10:08:48.440Z,34.97
2019-04-30T10:11:32.432Z,31.73
2019-04-30T10:14:05.280Z,29.10
2019-04-30T10:16:39.807Z,26.87
2019-04-30T10:19:14.958Z,31.63
2019-04-30T10:21:49.107Z,27.43
2019-04-30T10:24:26.835Z,36.63
2019-04-30T10:26:57.363Z,28.13
2019-04-30T10:29:41.633Z,27.33
2019-04-30T10:32:11.716Z,27.13
2019-04-30T10:34:40.146Z,27.30
2019-04-30T10:37:10.376Z,24.77
2019-04-30T10:39:39.493Z,27.30
2019-04-30T10:42:07.905Z,26.47
2019-04-30T10:44:36.372Z,26.17
2019-04-30T10:47:04.791Z,24.37
2019-04-30T10:49:38.775Z,23.77
2019-04-30T10:52:09.340Z,27.93
2019-04-30T10:54:39.955Z,23.53
2019-04-30T10:57:10.124Z,26.73
2019-04-30T10:59:40.992Z,24.27
2019-04-30T11:02:10.712Z,24.90
2019-04-30T11:04:41.535Z,26.00
2019-04-30T11:07:10.208Z,25.37
2019-04-30T11:09:42.232Z,26.13
2019-04-30T11:12:10.925Z,24.60
2019-04-30T11:14:40.355Z,25.47
2019-04-30T11:17:12.573Z,25.23
2019-04-30T11:19:45.736Z,24.93
2019-04-30T11:22:18.494Z,24.87
2019-04-30T11:24:58.940Z,24.27
2019-04-30T11:27:21.496Z,23.97
2019-04-30T11:30:01.520Z,22.63
2019-04-30T11:32:30.293Z,23.23
2019-04-30T11:35:00.205Z,24.13
2019-04-30T11:37:35.980Z,22.90
2019-04-30T11:40:00.320Z,23.47
2019-04-30T11:42:35.214Z,22.50
2019-04-30T11:45:11.207Z,22.07
2019-04-30T11:47:53.023Z,20.90
2019-04-30T11:50:16.168Z,22.23
2019-04-30T11:52:47.617Z,21.27
2019-04-30T11:55:23.230Z,20.93
2019-04-30T11:57:54.535Z,20.77
2019-04-30T12:00:24.519Z,20.90
2019-04-30T12:02:53.223Z,20.33
2019-04-30T12:05:23.172Z,20.33
2019-04-30T12:07:59.714Z,22.10
2019-04-30T12:10:35.644Z,21.73
2019-04-30T12:13:07.260Z,22.13
2019-04-30T12:15:39.754Z,19.80
2019-04-30T12:18:20.220Z,20.10
2019-04-30T12:21:05.195Z,21.10
2019-04-30T12:23:36.051Z,21.90
2019-04-30T12:26:09.737Z,20.67
2019-04-30T12:28:38.182Z,19.30
2019-04-30T12:31:09.777Z,18.97
2019-04-30T12:33:40.284Z,21.63
2019-04-30T12:36:18.889Z,18.47
2019-04-30T12:38:47.644Z,18.43
2019-04-30T12:41:18.615Z,17.60
2019-04-30T12:43:49.005Z,17.83
2019-04-30T12:46:22.439Z,16.37
2019-04-30T12:48:52.784Z,18.20
2019-04-30T12:51:25.076Z,16.03
2019-04-30T12:53:56.885Z,16.10
2019-04-30T12:56:28.881Z,17.27
2019-04-30T12:59:04.607Z,16.10
2019-04-30T13:01:34.755Z,15.70
2019-04-30T13:04:05.983Z,15.53
2019-04-30T13:06:36.941Z,16.80
2019-04-30T13:09:11.024Z,15.17
2019-04-30T13:11:45.275Z,16.20
2019-04-30T13:14:13.916Z,16.10
2019-04-30T13:16:46.746Z,15.10
2019-04-30T13:19:16.934Z,14.27
2019-04-30T13:21:48.528Z,14.30
2019-04-30T13:24:20.483Z,14.10
2019-04-30T13:26:52.069Z,13.47
2019-04-30T13:29:30.308Z,13.10
2019-04-30T13:31:58.806Z,14.37
2019-04-30T13:34:41.936Z,13.93
2019-04-30T13:37:13.447Z,12.93
2019-04-30T13:39:52.417Z,12.47
2019-04-30T13:42:31.336Z,12.43
2019-04-30T13:45:02.868Z,12.50
2019-04-30T13:47:32.762Z,12.80
2019-04-30T13:52:52.784Z,11.93
2019-04-30T13:55:26.488Z,11.70
2019-04-30T13:57:59.330Z,10.80
2019-04-30T14:00:33.229Z,11.50
2019-04-30T14:03:12.416Z,11.37
2019-04-30T14:05:45.945Z,11.53
2019-04-30T14:08:28.959Z,12.10
2019-04-30T14:11:00.621Z,10.93
2019-04-30T14:13:31.467Z,11.10
2019-04-30T14:16:03.563Z,11.60
2019-04-30T14:18:35.109Z,10.87
2019-04-30T14:21:09.197Z,11.00
2019-04-30T14:23:39.849Z,10.87
2019-04-30T14:26:10.220Z,11.00
2019-04-30T14:28:40.401Z,10.37
2019-04-30T14:31:12.328Z,10.30
2019-04-30T14:33:41.795Z,10.77
2019-04-30T14:36:11.293Z,10.80
2019-04-30T14:38:41.231Z,10.83
2019-04-30T14:41:11.631Z,10.10
2019-04-30T14:43:52.460Z,10.37
2019-04-30T14:46:30.927Z,10.60
2019-04-30T14:49:17.769Z,10.03
2019-04-30T14:51:48.972Z,10.27
2019-04-30T14:54:42.848Z,9.80
2019-04-30T14:57:20.122Z,9.57
2019-04-30T15:00:08.735Z,10.00
2019-04-30T15:02:39.912Z,10.10
2019-04-30T15:05:11.248Z,9.80
2019-04-30T15:07:45.234Z,10.47
2019-04-30T15:10:15.974Z,9.83
2019-04-30T15:12:49.221Z,9.97
2019-04-30T15:15:19.622Z,10.50
2019-04-30T15:17:50.479Z,10.30
2019-04-30T15:20:20.126Z,9.87
2019-04-30T15:22:58.784Z,10.00
2019-04-30T15:25:34.056Z,9.63
2019-04-30T15:28:01.583Z,9.70
2019-04-30T15:30:30.909Z,13.47
2019-04-30T15:33:02.379Z,9.23
2019-04-30T15:35:33.084Z,9.43
2019-04-30T15:38:06.779Z,9.93
2019-04-30T15:40:38.691Z,9.93
2019-04-30T15:43:08.260Z,9.17
2019-04-30T15:45:39.168Z,8.60
2019-04-30T15:48:09.015Z,9.37
2019-04-30T15:50:39.245Z,9.07
2019-04-30T15:53:10.042Z,9.50
2019-04-30T15:55:40.094Z,10.00
2019-04-30T15:58:13.030Z,8.70
2019-04-30T16:00:44.404Z,9.20
2019-04-30T16:03:19.042Z,8.77
2019-04-30T16:05:52.167Z,8.60
2019-04-30T16:08:25.641Z,8.83
2019-04-30T16:11:14.096Z,7.97
2019-04-30T16:13:52.608Z,9.13
2019-04-30T16:16:23.943Z,8.07
2019-04-30T16:18:56.177Z,8.47
2019-04-30T16:21:26.878Z,13.07
2019-04-30T16:23:58.149Z,14.50
2019-04-30T16:26:29.122Z,15.20
2019-04-30T16:28:59.935Z,15.23
2019-04-30T16:31:31.479Z,13.33
2019-04-30T16:34:02.867Z,14.83
2019-04-30T16:36:35.077Z,65.30
2019-04-30T16:39:09.274Z,136.10
2019-04-30T16:41:40.864Z,213.23
2019-04-30T16:44:09.593Z,720.23
2019-04-30T16:46:39.701Z,249.40
2019-04-30T16:49:13.440Z,216.30
2019-04-30T16:51:43.972Z,148.87
2019-04-30T16:54:12.985Z,129.07
2019-04-30T16:56:45.270Z,102.70
2019-04-30T16:59:16.434Z,92.63
2019-04-30T17:01:56.819Z,88.30
2019-04-30T17:04:21.217Z,82.63
2019-04-30T17:09:51.002Z,70.53
2019-04-30T17:12:25.871Z,61.80
2019-04-30T17:15:15.820Z,63.10
2019-04-30T17:17:50.877Z,58.53
2019-04-30T17:20:20.871Z,52.70
2019-04-30T17:22:50.893Z,54.40
2019-04-30T17:25:20.326Z,55.87
2019-04-30T17:27:51.752Z,51.63
2019-04-30T17:30:23.335Z,44.97
2019-04-30T17:32:52.029Z,44.77
2019-04-30T17:35:25.195Z,48.33
2019-04-30T17:37:54.802Z,45.03
2019-04-30T17:40:26.342Z,35.87
2019-04-30T17:42:56.376Z,38.57
2019-04-30T17:45:25.456Z,42.50
2019-04-30T17:47:57.045Z,37.87
2019-04-30T17:50:26.276Z,34.83
2019-04-30T17:52:55.943Z,32.80
2019-04-30T17:55:29.217Z,34.67
2019-04-30T17:57:59.276Z,31.80
2019-04-30T18:00:30.974Z,33.23
2019-04-30T18:03:01.216Z,32.33
2019-04-30T18:05:30.926Z,30.80
2019-04-30T18:08:02.978Z,28.70
2019-04-30T18:10:36.385Z,27.60
2019-04-30T18:13:08.060Z,26.37
2019-04-30T18:15:38.215Z,27.70
2019-04-30T18:18:11.742Z,26.80
2019-04-30T18:20:42.111Z,24.37
2019-04-30T18:23:29.968Z,24.33
2019-04-30T18:26:07.837Z,23.87
2019-04-30T18:28:37.871Z,23.33
2019-04-30T18:31:09.839Z,22.87
2019-04-30T18:33:39.878Z,22.80
2019-04-30T18:36:11.874Z,22.33
2019-04-30T18:38:42.276Z,16.87
2019-04-30T18:41:12.610Z,15.30
2019-04-30T18:43:44.682Z,16.80
2019-04-30T18:46:19.222Z,17.97
2019-04-30T18:48:52.828Z,15.77
2019-04-30T18:51:38.404Z,13.77
2019-04-30T18:53:57.384Z,14.23
2019-04-30T18:56:29.043Z,14.40
2019-04-30T18:59:00.221Z,13.53
2019-04-30T19:01:28.736Z,16.60
2019-04-30T19:03:58.432Z,17.00
2019-04-30T19:06:32.394Z,18.67
2019-04-30T19:09:06.911Z,15.60
2019-04-30T19:11:45.830Z,13.23
2019-04-30T19:14:34.147Z,12.63
2019-04-30T19:17:16.822Z,14.90
2019-04-30T19:19:49.373Z,15.07
2019-04-30T19:22:19.151Z,12.47
2019-04-30T19:24:56.234Z,12.63
2019-04-30T19:27:20.229Z,12.63
2019-04-30T19:29:51.680Z,12.50
2019-04-30T19:32:30.286Z,13.00
2019-04-30T19:34:59.120Z,13.03
2019-04-30T19:37:28.953Z,11.83
2019-04-30T19:40:00.246Z,12.17
2019-04-30T19:42:31.347Z,13.83
2019-04-30T19:45:09.433Z,11.47
2019-04-30T19:47:40.485Z,10.70
2019-04-30T19:50:15.575Z,11.07
2019-04-30T19:52:49.664Z,11.40
2019-04-30T19:55:22.687Z,11.23
2019-04-30T19:57:55.864Z,12.20
2019-04-30T20:00:26.901Z,11.20
2019-04-30T20:02:59.966Z,10.60
2019-04-30T20:05:32.027Z,11.90
2019-04-30T20:08:02.373Z,10.80
2019-04-30T20:10:36.309Z,10.33
2019-04-30T20:13:08.036Z,11.20
2019-04-30T20:15:36.444Z,12.07
2019-04-30T20:18:08.959Z,9.90
2019-04-30T20:20:40.762Z,10.27
2019-04-30T20:23:11.810Z,12.00
2019-04-30T20:25:43.502Z,10.53
2019-04-30T20:28:14.207Z,10.00
2019-04-30T20:30:44.532Z,10.07
2019-04-30T20:33:16.462Z,11.80
2019-04-30T20:35:48.849Z,9.53
2019-04-30T20:38:30.571Z,10.27
2019-04-30T20:41:03.291Z,9.60
2019-04-30T20:43:33.011Z,9.57
2019-04-30T20:46:02.203Z,10.97
2019-04-30T20:48:34.731Z,9.43
2019-04-30T20:51:05.295Z,9.33
2019-04-30T20:53:42.229Z,9.57
2019-04-30T20:56:13.378Z,10.30
2019-04-30T20:58:55.059Z,9.73
2019-04-30T21:01:15.189Z,9.60
2019-04-30T21:03:47.939Z,9.80
2019-04-30T21:06:19.839Z,9.57
2019-04-30T21:08:51.440Z,9.13
2019-04-30T21:11:22.651Z,9.53
2019-04-30T21:14:06.315Z,8.87
2019-04-30T21:16:37.224Z,9.10
2019-04-30T21:19:06.546Z,9.40
2019-04-30T21:21:38.722Z,8.80
2019-04-30T21:24:08.873Z,9.03
2019-04-30T21:26:41.070Z,9.23
2019-04-30T21:29:16.024Z,8.47
2019-04-30T21:32:05.249Z,8.53
2019-04-30T21:34:41.748Z,9.37
2019-04-30T21:37:15.900Z,9.50
2019-04-30T21:39:44.331Z,8.73
2019-04-30T21:42:12.730Z,12.40
2019-04-30T21:44:42.995Z,9.00
2019-04-30T21:47:14.223Z,8.23
2019-04-30T21:49:44.247Z,8.70
2019-04-30T21:52:14.799Z,12.17
2019-04-30T21:54:46.212Z,8.60
2019-04-30T21:57:17.121Z,9.97
2019-04-30T21:59:53.126Z,11.17
2019-04-30T22:02:25.125Z,10.50
2019-04-30T22:04:53.898Z,8.87
2019-04-30T22:07:22.682Z,10.33
2019-04-30T22:09:56.678Z,8.67
2019-04-30T22:12:28.445Z,8.40
2019-04-30T22:15:03.388Z,8.43
2019-04-30T22:17:39.263Z,8.87
2019-04-30T22:20:11.227Z,11.73
2019-04-30T22:22:43.993Z,8.30
2019-04-30T22:25:15.136Z,10.60
2019-04-30T22:27:46.280Z,8.37
2019-04-30T22:30:25.640Z,7.80
2019-04-30T22:32:55.696Z,10.03
2019-04-30T22:35:31.676Z,8.27
2019-04-30T22:38:09.262Z,8.20
2019-04-30T22:40:40.734Z,7.77
2019-04-30T22:43:13.522Z,7.73
2019-04-30T22:45:50.564Z,8.10
2019-04-30T22:48:19.094Z,8.10
2019-04-30T22:50:56.089Z,8.00
2019-04-30T22:53:26.395Z,8.13
2019-04-30T22:55:58.149Z,9.20
2019-04-30T22:58:27.228Z,7.57
2019-04-30T23:01:01.405Z,8.30
2019-04-30T23:03:33.116Z,7.97
2019-04-30T23:06:05.231Z,8.00
2019-04-30T23:08:35.317Z,7.40
2019-04-30T23:11:05.443Z,7.70
2019-04-30T23:13:34.425Z,7.73
2019-04-30T23:16:05.584Z,8.17
2019-04-30T23:18:35.829Z,7.80
2019-04-30T23:21:07.143Z,9.20
2019-04-30T23:23:39.068Z,8.17
2019-04-30T23:26:10.297Z,7.87
2019-04-30T23:28:40.356Z,7.93
2019-04-30T23:31:10.950Z,8.47
2019-04-30T23:33:41.456Z,7.50
2019-04-30T23:36:13.491Z,7.80
2019-04-30T23:38:43.486Z,9.03
2019-04-30T23:41:12.029Z,7.53
2019-04-30T23:43:42.367Z,7.10
2019-04-30T23:46:10.780Z,7.27
2019-04-30T23:48:45.298Z,7.20
2019-04-30T23:51:19.790Z,6.90
2019-04-30T23:53:52.455Z,7.67
2019-04-30T23:56:28.079Z,7.97
2019-04-30T23:58:59.150Z,7.03
